sensor_id;sensor_type;location;lat;lon;timestamp;pressure;altitude;pressure_sealevel;temperature;humidity
12868;BME280;33517;49.866;8.320;2023-01-26T00:01:14;101224.69;;;2.53;91.14
12868;BME280;33517;49.866;8.320;2023-01-26T00:04:06;101227.19;;;2.55;90.78
12868;BME280;33517;49.866;8.320;2023-01-26T00:06:58;101220.88;;;2.59;90.58
12868;BME280;33517;49.866;8.320;2023-01-26T00:09:50;101217.00;;;2.66;90.58
12868;BME280;33517;49.866;8.320;2023-01-26T00:12:43;101214.81;;;2.72;90.50
12868;BME280;33517;49.866;8.320;2023-01-26T00:15:35;101210.56;;;2.71;90.56
12868;BME280;33517;49.866;8.320;2023-01-26T00:18:27;101206.91;;;2.74;90.40
12868;BME280;33517;49.866;8.320;2023-01-26T00:21:22;101205.38;;;2.71;90.16
12868;BME280;33517;49.866;8.320;2023-01-26T00:24:14;101207.72;;;2.62;90.21
12868;BME280;33517;49.866;8.320;2023-01-26T00:27:06;101201.56;;;2.63;90.30
12868;BME280;33517;49.866;8.320;2023-01-26T00:29:59;101197.97;;;2.65;90.98
12868;BME280;33517;49.866;8.320;2023-01-26T00:32:51;101195.78;;;2.72;90.66
12868;BME280;33517;49.866;8.320;2023-01-26T00:35:42;101194.88;;;2.73;91.39
12868;BME280;33517;49.866;8.320;2023-01-26T00:38:34;101195.63;;;2.75;90.98
12868;BME280;33517;49.866;8.320;2023-01-26T00:41:26;101193.78;;;2.63;90.41
12868;BME280;33517;49.866;8.320;2023-01-26T00:44:36;101191.28;;;2.61;90.75
12868;BME280;33517;49.866;8.320;2023-01-26T00:47:30;101187.47;;;2.67;90.78
12868;BME280;33517;49.866;8.320;2023-01-26T00:50:22;101189.22;;;2.66;90.56
12868;BME280;33517;49.866;8.320;2023-01-26T00:53:14;101194.97;;;2.71;91.43
12868;BME280;33517;49.866;8.320;2023-01-26T00:56:07;101192.81;;;2.78;90.94
12868;BME280;33517;49.866;8.320;2023-01-26T00:58:59;101192.06;;;2.76;90.52
12868;BME280;33517;49.866;8.320;2023-01-26T01:01:51;101192.81;;;2.78;91.10
12868;BME280;33517;49.866;8.320;2023-01-26T01:04:45;101189.22;;;2.66;90.32
12868;BME280;33517;49.866;8.320;2023-01-26T01:07:37;101191.56;;;2.57;90.78
12868;BME280;33517;49.866;8.320;2023-01-26T01:10:28;101191.44;;;2.58;90.81
12868;BME280;33517;49.866;8.320;2023-01-26T01:13:20;101197.22;;;2.63;90.61
12868;BME280;33517;49.866;8.320;2023-01-26T01:16:14;101197.00;;;2.66;90.45
12868;BME280;33517;49.866;8.320;2023-01-26T01:19:06;101194.72;;;2.62;90.57
12868;BME280;33517;49.866;8.320;2023-01-26T01:22:00;101195.53;;;2.62;90.61
12868;BME280;33517;49.866;8.320;2023-01-26T01:24:52;101197.97;;;2.65;90.67
12868;BME280;33517;49.866;8.320;2023-01-26T01:27:44;101191.28;;;2.61;90.72
12868;BME280;33517;49.866;8.320;2023-01-26T01:30:36;101193.59;;;2.66;90.77
12868;BME280;33517;49.866;8.320;2023-01-26T01:33:28;101189.31;;;2.65;90.91
12868;BME280;33517;49.866;8.320;2023-01-26T01:36:21;101194.06;;;2.58;91.25
12868;BME280;33517;49.866;8.320;2023-01-26T01:39:14;101195.72;;;2.59;90.97
12868;BME280;33517;49.866;8.320;2023-01-26T01:42:06;101195.84;;;2.58;91.02
12868;BME280;33517;49.866;8.320;2023-01-26T01:45:27;101193.44;;;2.41;90.96
12868;BME280;33517;49.866;8.320;2023-01-26T01:48:27;101189.09;;;2.27;91.48
12868;BME280;33517;49.866;8.320;2023-01-26T01:51:29;101192.13;;;2.34;91.48
12868;BME280;33517;49.866;8.320;2023-01-26T01:54:26;101191.22;;;2.21;91.94
12868;BME280;33517;49.866;8.320;2023-01-26T01:57:21;101183.63;;;2.18;92.41
12868;BME280;33517;49.866;8.320;2023-01-26T02:00:19;101182.41;;;2.23;92.59
12868;BME280;33517;49.866;8.320;2023-01-26T02:03:12;101175.28;;;2.27;91.34
12868;BME280;33517;49.866;8.320;2023-01-26T02:06:07;101177.22;;;2.23;92.08
12868;BME280;33517;49.866;8.320;2023-01-26T02:09:02;101166.53;;;2.28;92.37
12868;BME280;33517;49.866;8.320;2023-01-26T02:11:57;101174.63;;;2.23;92.33
12868;BME280;33517;49.866;8.320;2023-01-26T02:14:51;101166.72;;;2.11;91.64
12868;BME280;33517;49.866;8.320;2023-01-26T02:17:43;101163.88;;;2.15;92.34
12868;BME280;33517;49.866;8.320;2023-01-26T02:20:41;101158.03;;;2.12;92.19
12868;BME280;33517;49.866;8.320;2023-01-26T02:23:46;101168.13;;;2.02;92.84
12868;BME280;33517;49.866;8.320;2023-01-26T02:26:42;101162.66;;;1.93;92.22
12868;BME280;33517;49.866;8.320;2023-01-26T02:29:34;101156.72;;;1.91;92.66
12868;BME280;33517;49.866;8.320;2023-01-26T02:32:25;101149.94;;;1.88;93.27
12868;BME280;33517;49.866;8.320;2023-01-26T02:35:18;101160.53;;;1.85;92.98
12868;BME280;33517;49.866;8.320;2023-01-26T02:38:10;101162.03;;;1.89;93.08
12868;BME280;33517;49.866;8.320;2023-01-26T02:41:05;101161.19;;;1.88;93.01
12868;BME280;33517;49.866;8.320;2023-01-26T02:43:58;101154.78;;;2.08;92.84
12868;BME280;33517;49.866;8.320;2023-01-26T02:46:49;101153.69;;;2.12;91.99
12868;BME280;33517;49.866;8.320;2023-01-26T02:49:41;101144.69;;;2.04;91.53
12868;BME280;33517;49.866;8.320;2023-01-26T02:52:40;101145.03;;;1.98;91.94
12868;BME280;33517;49.866;8.320;2023-01-26T02:55:32;101155.97;;;1.88;91.87
12868;BME280;33517;49.866;8.320;2023-01-26T02:58:23;101153.94;;;1.79;91.71
12868;BME280;33517;49.866;8.320;2023-01-26T03:01:16;101147.28;;;1.75;92.28
12868;BME280;33517;49.866;8.320;2023-01-26T03:04:08;101145.69;;;1.73;92.36
12868;BME280;33517;49.866;8.320;2023-01-26T03:07:00;101136.16;;;1.73;91.83
12868;BME280;33517;49.866;8.320;2023-01-26T03:09:51;101142.09;;;1.75;92.16
12868;BME280;33517;49.866;8.320;2023-01-26T03:12:44;101128.63;;;1.69;91.43
12868;BME280;33517;49.866;8.320;2023-01-26T03:15:35;101131.31;;;1.67;91.99
12868;BME280;33517;49.866;8.320;2023-01-26T03:18:43;101129.84;;;1.63;91.80
12868;BME280;33517;49.866;8.320;2023-01-26T03:22:00;101125.50;;;1.64;91.71
12868;BME280;33517;49.866;8.320;2023-01-26T03:25:10;101123.63;;;1.66;91.77
12868;BME280;33517;49.866;8.320;2023-01-26T03:28:20;101119.72;;;1.59;91.97
12868;BME280;33517;49.866;8.320;2023-01-26T03:31:12;101117.31;;;1.56;91.89
12868;BME280;33517;49.866;8.320;2023-01-26T03:34:05;101111.28;;;1.55;92.03
12868;BME280;33517;49.866;8.320;2023-01-26T03:36:57;101112.88;;;1.58;92.54
12868;BME280;33517;49.866;8.320;2023-01-26T03:39:49;101102.41;;;1.59;92.24
12868;BME280;33517;49.866;8.320;2023-01-26T03:43:06;101108.63;;;1.57;92.44
12868;BME280;33517;49.866;8.320;2023-01-26T03:46:15;101099.91;;;1.58;92.74
12868;BME280;33517;49.866;8.320;2023-01-26T03:49:26;101110.53;;;1.53;92.49
12868;BME280;33517;49.866;8.320;2023-01-26T03:52:35;101096.38;;;1.45;92.19
12868;BME280;33517;49.866;8.320;2023-01-26T03:55:44;101103.13;;;1.33;92.28
12868;BME280;33517;49.866;8.320;2023-01-26T03:58:56;101102.66;;;1.41;92.99
12868;BME280;33517;49.866;8.320;2023-01-26T04:01:57;101102.47;;;1.44;92.21
12868;BME280;33517;49.866;8.320;2023-01-26T04:05:08;101093.50;;;1.49;92.17
12868;BME280;33517;49.866;8.320;2023-01-26T04:08:17;101092.38;;;1.53;91.97
12868;BME280;33517;49.866;8.320;2023-01-26T04:11:13;101092.50;;;1.52;91.83
12868;BME280;33517;49.866;8.320;2023-01-26T04:14:05;101081.09;;;1.54;92.01
12868;BME280;33517;49.866;8.320;2023-01-26T04:17:15;101082.41;;;1.61;92.83
12868;BME280;33517;49.866;8.320;2023-01-26T04:20:26;101087.31;;;1.66;91.87
12868;BME280;33517;49.866;8.320;2023-01-26T04:23:35;101082.59;;;1.72;91.95
12868;BME280;33517;49.866;8.320;2023-01-26T04:26:29;101070.56;;;1.71;91.66
12868;BME280;33517;49.866;8.320;2023-01-26T04:29:24;101071.41;;;1.72;92.18
12868;BME280;33517;49.866;8.320;2023-01-26T04:32:16;101073.63;;;1.64;92.34
12868;BME280;33517;49.866;8.320;2023-01-26T04:35:08;101073.03;;;1.45;92.05
12868;BME280;33517;49.866;8.320;2023-01-26T04:38:02;101074.06;;;1.42;92.44
12868;BME280;33517;49.866;8.320;2023-01-26T04:40:54;101072.22;;;1.58;92.37
12868;BME280;33517;49.866;8.320;2023-01-26T04:43:46;101067.69;;;1.62;92.20
12868;BME280;33517;49.866;8.320;2023-01-26T04:46:38;101064.63;;;1.69;91.73
12868;BME280;33517;49.866;8.320;2023-01-26T04:49:30;101070.00;;;1.80;91.51
12868;BME280;33517;49.866;8.320;2023-01-26T04:52:21;101063.53;;;1.88;91.46
12868;BME280;33517;49.866;8.320;2023-01-26T04:55:15;101060.72;;;1.91;91.19
12868;BME280;33517;49.866;8.320;2023-01-26T04:58:07;101058.97;;;1.77;90.29
12868;BME280;33517;49.866;8.320;2023-01-26T05:00:58;101064.81;;;1.80;90.89
12868;BME280;33517;49.866;8.320;2023-01-26T05:03:50;101063.69;;;1.84;90.90
12868;BME280;33517;49.866;8.320;2023-01-26T05:06:42;101067.28;;;1.82;91.19
12868;BME280;33517;49.866;8.320;2023-01-26T05:09:34;101057.00;;;1.80;90.45
12868;BME280;33517;49.866;8.320;2023-01-26T05:12:27;101056.53;;;1.88;90.80
12868;BME280;33517;49.866;8.320;2023-01-26T05:15:25;101047.47;;;1.95;90.53
12868;BME280;33517;49.866;8.320;2023-01-26T05:18:18;101055.69;;;2.02;90.28
12868;BME280;33517;49.866;8.320;2023-01-26T05:21:10;101058.03;;;2.06;90.34
12868;BME280;33517;49.866;8.320;2023-01-26T05:24:01;101056.53;;;2.02;90.44
12868;BME280;33517;49.866;8.320;2023-01-26T05:26:53;101048.38;;;1.94;90.49
12868;BME280;33517;49.866;8.320;2023-01-26T05:30:08;101046.00;;;1.77;90.14
12868;BME280;33517;49.866;8.320;2023-01-26T05:33:00;101048.31;;;1.67;91.07
12868;BME280;33517;49.866;8.320;2023-01-26T05:35:53;101049.25;;;1.66;90.70
12868;BME280;33517;49.866;8.320;2023-01-26T05:38:44;101036.94;;;1.70;90.38
12868;BME280;33517;49.866;8.320;2023-01-26T05:41:37;101050.81;;;1.69;90.67
12868;BME280;33517;49.866;8.320;2023-01-26T05:44:28;101049.81;;;1.71;90.53
12868;BME280;33517;49.866;8.320;2023-01-26T05:47:22;101052.41;;;1.71;90.61
12868;BME280;33517;49.866;8.320;2023-01-26T05:50:14;101048.31;;;1.67;90.08
12868;BME280;33517;49.866;8.320;2023-01-26T05:53:06;101049.31;;;1.65;90.30
12868;BME280;33517;49.866;8.320;2023-01-26T05:55:58;101049.88;;;1.42;90.12
12868;BME280;33517;49.866;8.320;2023-01-26T05:58:50;101054.34;;;1.54;90.33
12868;BME280;33517;49.866;8.320;2023-01-26T06:01:42;101058.31;;;1.59;90.07
12868;BME280;33517;49.866;8.320;2023-01-26T06:04:36;101065.72;;;1.65;90.45
12868;BME280;33517;49.866;8.320;2023-01-26T06:07:28;101066.38;;;1.69;90.46
12868;BME280;33517;49.866;8.320;2023-01-26T06:10:20;101067.69;;;1.76;90.18
12868;BME280;33517;49.866;8.320;2023-01-26T06:13:11;101065.38;;;1.85;90.20
12868;BME280;33517;49.866;8.320;2023-01-26T06:16:04;101073.16;;;1.85;89.81
12868;BME280;33517;49.866;8.320;2023-01-26T06:18:56;101076.38;;;1.89;89.31
12868;BME280;33517;49.866;8.320;2023-01-26T06:21:49;101074.22;;;1.96;89.64
12868;BME280;33517;49.866;8.320;2023-01-26T06:24:43;101079.53;;;2.08;89.59
12868;BME280;33517;49.866;8.320;2023-01-26T06:27:34;101081.53;;;2.17;89.67
12868;BME280;33517;49.866;8.320;2023-01-26T06:30:26;101084.03;;;2.19;88.61
12868;BME280;33517;49.866;8.320;2023-01-26T06:33:18;101084.34;;;2.14;88.68
12868;BME280;33517;49.866;8.320;2023-01-26T06:36:12;101085.25;;;2.13;88.50
12868;BME280;33517;49.866;8.320;2023-01-26T06:39:06;101087.84;;;2.13;88.77
12868;BME280;33517;49.866;8.320;2023-01-26T06:41:58;101079.16;;;2.14;88.88
12868;BME280;33517;49.866;8.320;2023-01-26T06:44:50;101083.28;;;2.17;88.02
12868;BME280;33517;49.866;8.320;2023-01-26T06:47:44;101083.28;;;2.17;88.48
12868;BME280;33517;49.866;8.320;2023-01-26T06:50:38;101083.28;;;2.17;88.52
12868;BME280;33517;49.866;8.320;2023-01-26T06:53:32;101089.69;;;2.11;87.86
12868;BME280;33517;49.866;8.320;2023-01-26T06:56:26;101086.09;;;2.14;88.56
12868;BME280;33517;49.866;8.320;2023-01-26T06:59:18;101087.22;;;2.10;88.02
12868;BME280;33517;49.866;8.320;2023-01-26T07:02:16;101089.34;;;2.03;87.83
12868;BME280;33517;49.866;8.320;2023-01-26T07:05:08;101083.13;;;1.92;88.10
12868;BME280;33517;49.866;8.320;2023-01-26T07:08:00;101092.78;;;1.89;87.40
12868;BME280;33517;49.866;8.320;2023-01-26T07:10:53;101092.59;;;1.93;87.77
12868;BME280;33517;49.866;8.320;2023-01-26T07:13:47;101094.47;;;1.91;88.32
12868;BME280;33517;49.866;8.320;2023-01-26T07:16:39;101090.19;;;1.89;87.97
12868;BME280;33517;49.866;8.320;2023-01-26T07:19:31;101087.69;;;1.88;87.67
12868;BME280;33517;49.866;8.320;2023-01-26T07:22:23;101101.41;;;1.90;87.58
12868;BME280;33517;49.866;8.320;2023-01-26T07:25:15;101107.44;;;1.91;87.21
12868;BME280;33517;49.866;8.320;2023-01-26T07:28:07;101106.94;;;1.84;87.78
12868;BME280;33517;49.866;8.320;2023-01-26T07:31:03;101116.22;;;1.88;87.48
12868;BME280;33517;49.866;8.320;2023-01-26T07:33:55;101112.69;;;1.75;87.00
12868;BME280;33517;49.866;8.320;2023-01-26T07:36:50;101119.84;;;1.71;86.52
12868;BME280;33517;49.866;8.320;2023-01-26T07:39:42;101115.13;;;1.78;86.98
12868;BME280;33517;49.866;8.320;2023-01-26T07:42:34;101109.38;;;1.73;86.69
12868;BME280;33517;49.866;8.320;2023-01-26T07:45:26;101115.94;;;1.78;86.94
12868;BME280;33517;49.866;8.320;2023-01-26T07:48:22;101115.78;;;1.81;87.14
12868;BME280;33517;49.866;8.320;2023-01-26T07:51:14;101106.16;;;1.83;86.70
12868;BME280;33517;49.866;8.320;2023-01-26T07:54:09;101113.72;;;1.86;86.42
12868;BME280;33517;49.866;8.320;2023-01-26T07:57:01;101117.72;;;1.92;86.91
12868;BME280;33517;49.866;8.320;2023-01-26T07:59:53;101114.47;;;1.88;85.86
12868;BME280;33517;49.866;8.320;2023-01-26T08:02:48;101121.03;;;1.80;86.16
12868;BME280;33517;49.866;8.320;2023-01-26T08:05:41;101111.97;;;1.73;86.15
12868;BME280;33517;49.866;8.320;2023-01-26T08:08:34;101117.16;;;1.73;86.53
12868;BME280;33517;49.866;8.320;2023-01-26T08:11:26;101124.84;;;1.74;86.43
12868;BME280;33517;49.866;8.320;2023-01-26T08:14:18;101121.50;;;1.72;85.60
12868;BME280;33517;49.866;8.320;2023-01-26T08:17:09;101124.09;;;1.72;86.39
12868;BME280;33517;49.866;8.320;2023-01-26T08:20:01;101132.16;;;1.68;86.04
12868;BME280;33517;49.866;8.320;2023-01-26T08:22:55;101127.72;;;1.70;86.30
12868;BME280;33517;49.866;8.320;2023-01-26T08:25:47;101131.22;;;1.69;86.24
12868;BME280;33517;49.866;8.320;2023-01-26T08:28:39;101122.69;;;1.67;85.98
12868;BME280;33517;49.866;8.320;2023-01-26T08:31:31;101128.47;;;1.72;85.89
12868;BME280;33517;49.866;8.320;2023-01-26T08:34:24;101127.81;;;1.82;86.08
12868;BME280;33517;49.866;8.320;2023-01-26T08:37:16;101131.81;;;1.74;85.28
12868;BME280;33517;49.866;8.320;2023-01-26T08:40:10;101134.47;;;1.72;85.53
12868;BME280;33517;49.866;8.320;2023-01-26T08:43:02;101132.63;;;1.74;85.37
12868;BME280;33517;49.866;8.320;2023-01-26T08:45:54;101134.47;;;1.72;85.13
12868;BME280;33517;49.866;8.320;2023-01-26T08:48:46;101140.97;;;1.79;85.64
12868;BME280;33517;49.866;8.320;2023-01-26T08:51:38;101134.69;;;1.83;85.02
12868;BME280;33517;49.866;8.320;2023-01-26T08:54:30;101143.75;;;1.76;84.75
12868;BME280;33517;49.866;8.320;2023-01-26T08:57:23;101149.38;;;1.69;84.69
12868;BME280;33517;49.866;8.320;2023-01-26T09:00:16;101151.44;;;1.78;85.28
12868;BME280;33517;49.866;8.320;2023-01-26T09:03:08;101146.63;;;1.86;85.36
12868;BME280;33517;49.866;8.320;2023-01-26T09:06:00;101149.84;;;1.89;85.35
12868;BME280;33517;49.866;8.320;2023-01-26T09:08:53;101149.50;;;1.81;85.02
12868;BME280;33517;49.866;8.320;2023-01-26T09:11:45;101150.63;;;1.77;85.06
12868;BME280;33517;49.866;8.320;2023-01-26T09:14:39;101155.50;;;1.82;84.47
12868;BME280;33517;49.866;8.320;2023-01-26T09:17:31;101151.34;;;1.79;84.79
12868;BME280;33517;49.866;8.320;2023-01-26T09:20:23;101140.50;;;1.73;84.59
12868;BME280;33517;49.866;8.320;2023-01-26T09:23:15;101142.63;;;1.80;84.72
12868;BME280;33517;49.866;8.320;2023-01-26T09:26:07;101145.06;;;1.83;84.07
12868;BME280;33517;49.866;8.320;2023-01-26T09:28:59;101141.91;;;1.93;83.98
12868;BME280;33517;49.866;8.320;2023-01-26T09:31:52;101145.03;;;1.98;83.91
12868;BME280;33517;49.866;8.320;2023-01-26T09:34:44;101146.72;;;1.99;83.65
12868;BME280;33517;49.866;8.320;2023-01-26T09:37:36;101144.41;;;1.94;83.08
12868;BME280;33517;49.866;8.320;2023-01-26T09:40:35;101151.00;;;1.85;83.40
12868;BME280;33517;49.866;8.320;2023-01-26T09:43:35;101152.91;;;1.82;83.24
12868;BME280;33517;49.866;8.320;2023-01-26T09:46:39;101148.56;;;1.82;83.39
12868;BME280;33517;49.866;8.320;2023-01-26T09:49:45;101149.22;;;1.86;83.60
12868;BME280;33517;49.866;8.320;2023-01-26T09:52:43;101161.81;;;1.92;83.74
12868;BME280;33517;49.866;8.320;2023-01-26T09:55:39;101153.47;;;2.01;83.27
12868;BME280;33517;49.866;8.320;2023-01-26T09:58:34;101152.09;;;2.10;82.96
12868;BME280;33517;49.866;8.320;2023-01-26T10:01:32;101146.91;;;2.10;83.34
12868;BME280;33517;49.866;8.320;2023-01-26T10:04:29;101143.94;;;2.02;83.13
12868;BME280;33517;49.866;8.320;2023-01-26T10:07:27;101144.50;;;2.07;83.75
12868;BME280;33517;49.866;8.320;2023-01-26T10:10:24;101148.88;;;2.06;83.63
12868;BME280;33517;49.866;8.320;2023-01-26T10:13:17;101144.50;;;2.07;83.91
12868;BME280;33517;49.866;8.320;2023-01-26T10:16:11;101136.72;;;2.07;83.16
12868;BME280;33517;49.866;8.320;2023-01-26T10:19:08;101138.66;;;2.17;83.13
12868;BME280;33517;49.866;8.320;2023-01-26T10:22:05;101135.09;;;2.18;83.46
12868;BME280;33517;49.866;8.320;2023-01-26T10:25:11;101145.97;;;2.11;83.03
12868;BME280;33517;49.866;8.320;2023-01-26T10:28:11;101147.44;;;2.15;82.97
12868;BME280;33517;49.866;8.320;2023-01-26T10:31:07;101135.31;;;2.15;82.61
12868;BME280;33517;49.866;8.320;2023-01-26T10:34:10;101137.81;;;2.17;82.29
12868;BME280;33517;49.866;8.320;2023-01-26T10:37:18;101129.00;;;2.19;83.14
12868;BME280;33517;49.866;8.320;2023-01-26T10:40:12;101123.44;;;2.25;82.57
12868;BME280;33517;49.866;8.320;2023-01-26T10:43:10;101121.09;;;2.35;82.84
12868;BME280;33517;49.866;8.320;2023-01-26T10:46:22;101123.59;;;2.50;82.80
12868;BME280;33517;49.866;8.320;2023-01-26T10:49:15;101113.19;;;2.50;82.10
12868;BME280;33517;49.866;8.320;2023-01-26T10:52:14;101110.28;;;2.55;81.99
12868;BME280;33517;49.866;8.320;2023-01-26T10:55:15;101122.00;;;2.48;82.10
12868;BME280;33517;49.866;8.320;2023-01-26T11:01:51;101113.00;;;2.53;81.91
12868;BME280;33517;49.866;8.320;2023-01-26T11:05:00;101105.66;;;2.60;81.43
12868;BME280;33517;49.866;8.320;2023-01-26T11:07:54;101097.38;;;2.67;80.95
12868;BME280;33517;49.866;8.320;2023-01-26T11:10:51;101095.91;;;2.63;80.83
12868;BME280;33517;49.866;8.320;2023-01-26T11:13:44;101093.94;;;2.67;80.48
12868;BME280;33517;49.866;8.320;2023-01-26T11:16:36;101097.13;;;2.58;80.18
12868;BME280;33517;49.866;8.320;2023-01-26T11:19:41;101092.06;;;2.69;80.53
12868;BME280;33517;49.866;8.320;2023-01-26T11:22:40;101087.22;;;2.77;80.46
12868;BME280;33517;49.866;8.320;2023-01-26T11:25:44;101080.19;;;2.92;79.48
12868;BME280;33517;49.866;8.320;2023-01-26T11:28:48;101081.44;;;2.99;79.74
12868;BME280;33517;49.866;8.320;2023-01-26T11:31:52;101082.09;;;3.02;79.38
12868;BME280;33517;49.866;8.320;2023-01-26T11:34:57;101071.38;;;3.07;78.86
12868;BME280;33517;49.866;8.320;2023-01-26T11:37:55;101070.47;;;3.08;78.84
12868;BME280;33517;49.866;8.320;2023-01-26T11:41:00;101061.19;;;3.04;79.01
12868;BME280;33517;49.866;8.320;2023-01-26T11:44:11;101064.53;;;3.06;78.31
12868;BME280;33517;49.866;8.320;2023-01-26T11:47:12;101062.94;;;3.03;78.79
12868;BME280;33517;49.866;8.320;2023-01-26T11:50:24;101060.75;;;2.97;77.77
12868;BME280;33517;49.866;8.320;2023-01-26T11:53:30;101056.66;;;2.80;78.19
12868;BME280;33517;49.866;8.320;2023-01-26T11:56:34;101061.88;;;2.80;78.66
12868;BME280;33517;49.866;8.320;2023-01-26T11:59:37;101059.94;;;2.70;78.45
12868;BME280;33517;49.866;8.320;2023-01-26T12:02:34;101071.88;;;2.60;78.28
12868;BME280;33517;49.866;8.320;2023-01-26T12:05:30;101055.81;;;2.41;78.38
12868;BME280;33517;49.866;8.320;2023-01-26T12:08:28;101052.97;;;2.31;78.52
12868;BME280;33517;49.866;8.320;2023-01-26T12:11:31;101051.28;;;2.30;77.49
12868;BME280;33517;49.866;8.320;2023-01-26T12:14:26;101049.88;;;2.39;77.54
12868;BME280;33517;49.866;8.320;2023-01-26T12:17:32;101046.69;;;2.48;77.55
12868;BME280;33517;49.866;8.320;2023-01-26T12:20:33;101037.13;;;2.48;77.16
12868;BME280;33517;49.866;8.320;2023-01-26T12:23:30;101032.97;;;2.46;77.64
12868;BME280;33517;49.866;8.320;2023-01-26T12:26:25;101040.75;;;2.46;77.32
12868;BME280;33517;49.866;8.320;2023-01-26T12:29:23;101029.53;;;2.45;77.10
12868;BME280;33517;49.866;8.320;2023-01-26T12:32:17;101013.38;;;2.67;77.10
12868;BME280;33517;49.866;8.320;2023-01-26T12:35:11;101014.88;;;2.83;76.70
12868;BME280;33517;49.866;8.320;2023-01-26T12:38:07;101022.09;;;3.05;76.25
12868;BME280;33517;49.866;8.320;2023-01-26T12:41:05;101005.25;;;3.23;75.51
12868;BME280;33517;49.866;8.320;2023-01-26T12:44:09;100997.50;;;3.72;74.96
12868;BME280;33517;49.866;8.320;2023-01-26T12:47:13;100985.75;;;4.03;74.02
12868;BME280;33517;49.866;8.320;2023-01-26T12:50:10;100987.56;;;3.90;74.11
12868;BME280;33517;49.866;8.320;2023-01-26T12:53:13;100989.38;;;3.77;72.52
12868;BME280;33517;49.866;8.320;2023-01-26T12:56:10;100992.34;;;3.47;72.43
12868;BME280;33517;49.866;8.320;2023-01-26T12:59:13;100989.75;;;3.34;73.24
12868;BME280;33517;49.866;8.320;2023-01-26T13:02:19;100993.41;;;3.44;73.08
12868;BME280;33517;49.866;8.320;2023-01-26T13:05:25;100994.81;;;3.48;73.34
12868;BME280;33517;49.866;8.320;2023-01-26T13:08:46;100996.72;;;3.46;72.62
12868;BME280;33517;49.866;8.320;2023-01-26T13:11:49;101003.69;;;3.33;72.98
12868;BME280;33517;49.866;8.320;2023-01-26T13:14:59;100993.81;;;3.26;72.08
12868;BME280;33517;49.866;8.320;2023-01-26T13:17:56;100995.16;;;3.19;72.86
12868;BME280;33517;49.866;8.320;2023-01-26T13:20:49;100995.56;;;3.13;73.72
12868;BME280;33517;49.866;8.320;2023-01-26T13:23:43;100993.69;;;3.15;72.97
12868;BME280;33517;49.866;8.320;2023-01-26T13:26:44;100990.69;;;2.96;73.72
12868;BME280;33517;49.866;8.320;2023-01-26T13:29:51;100984.84;;;3.05;73.60
12868;BME280;33517;49.866;8.320;2023-01-26T13:32:54;100975.81;;;2.98;73.39
12868;BME280;33517;49.866;8.320;2023-01-26T13:35:53;100978.41;;;2.98;73.56
12868;BME280;33517;49.866;8.320;2023-01-26T13:38:54;100977.47;;;2.99;73.55
12868;BME280;33517;49.866;8.320;2023-01-26T13:41:49;100978.84;;;3.04;73.71
12868;BME280;33517;49.866;8.320;2023-01-26T13:44:43;100976.13;;;3.06;73.56
12868;BME280;33517;49.866;8.320;2023-01-26T13:47:39;100983.31;;;3.02;74.04
12868;BME280;33517;49.866;8.320;2023-01-26T13:50:35;100985.28;;;3.11;74.20
12868;BME280;33517;49.866;8.320;2023-01-26T13:53:36;100989.31;;;3.03;73.93
12868;BME280;33517;49.866;8.320;2023-01-26T13:56:31;100986.72;;;2.90;74.04
12868;BME280;33517;49.866;8.320;2023-01-26T13:59:24;100984.63;;;2.83;74.12
12868;BME280;33517;49.866;8.320;2023-01-26T14:02:24;100991.38;;;2.72;73.70
12868;BME280;33517;49.866;8.320;2023-01-26T14:05:20;100993.63;;;2.64;73.90
12868;BME280;33517;49.866;8.320;2023-01-26T14:08:14;101001.53;;;2.63;74.64
12868;BME280;33517;49.866;8.320;2023-01-26T14:11:15;101001.63;;;2.61;74.79
12868;BME280;33517;49.866;8.320;2023-01-26T14:14:19;101003.00;;;2.67;74.29
12868;BME280;33517;49.866;8.320;2023-01-26T14:17:24;101000.31;;;2.42;74.50
12868;BME280;33517;49.866;8.320;2023-01-26T14:20:23;101005.34;;;2.45;74.32
12868;BME280;33517;49.866;8.320;2023-01-26T14:23:17;101003.91;;;2.53;74.52
12868;BME280;33517;49.866;8.320;2023-01-26T14:26:15;101001.50;;;2.50;74.92
12868;BME280;33517;49.866;8.320;2023-01-26T14:29:19;101004.69;;;2.41;74.91
12868;BME280;33517;49.866;8.320;2023-01-26T14:32:14;101021.31;;;2.39;74.98
12868;BME280;33517;49.866;8.320;2023-01-26T14:35:18;101025.78;;;2.37;75.56
12868;BME280;33517;49.866;8.320;2023-01-26T14:38:16;101028.06;;;2.41;75.67
12868;BME280;33517;49.866;8.320;2023-01-26T14:41:13;101026.28;;;2.42;75.59
12868;BME280;33517;49.866;8.320;2023-01-26T14:44:07;101026.94;;;2.45;75.75
12868;BME280;33517;49.866;8.320;2023-01-26T14:47:03;101026.78;;;2.34;76.00
12868;BME280;33517;49.866;8.320;2023-01-26T14:50:00;101031.53;;;2.28;75.74
12868;BME280;33517;49.866;8.320;2023-01-26T14:52:53;101030.16;;;2.22;76.38
12868;BME280;33517;49.866;8.320;2023-01-26T14:55:46;101039.16;;;2.17;76.38
12868;BME280;33517;49.866;8.320;2023-01-26T14:58:38;101034.53;;;2.22;75.91
12868;BME280;33517;49.866;8.320;2023-01-26T15:01:31;101036.31;;;2.07;76.33
12868;BME280;33517;49.866;8.320;2023-01-26T15:04:30;101040.13;;;2.02;76.94
12868;BME280;33517;49.866;8.320;2023-01-26T15:07:36;101043.19;;;2.08;76.53
12868;BME280;33517;49.866;8.320;2023-01-26T15:10:33;101047.75;;;2.05;76.61
12868;BME280;33517;49.866;8.320;2023-01-26T15:13:29;101037.00;;;1.97;76.22
12868;BME280;33517;49.866;8.320;2023-01-26T15:16:22;101036.25;;;1.95;76.33
12868;BME280;33517;49.866;8.320;2023-01-26T15:19:21;101031.22;;;2.06;76.49
12868;BME280;33517;49.866;8.320;2023-01-26T15:22:23;101031.84;;;2.09;76.27
12868;BME280;33517;49.866;8.320;2023-01-26T15:25:17;101017.13;;;2.10;76.98
12868;BME280;33517;49.866;8.320;2023-01-26T15:28:15;101025.44;;;2.15;76.62
12868;BME280;33517;49.866;8.320;2023-01-26T15:31:18;101023.97;;;2.11;76.82
12868;BME280;33517;49.866;8.320;2023-01-26T15:34:28;101025.66;;;2.12;77.22
12868;BME280;33517;49.866;8.320;2023-01-26T15:37:28;101028.03;;;2.15;77.48